Time;durP1;ratioP1;P1;durP2;ratioP2;P2;SDS_P1;SDS_P2;PMS_P1;PMS_P2;Temp;Humidity;BMP_temperature;BMP_pressure;BME280_temperature;BME280_humidity;BME280_pressure;Samples;Min_cycle;Max_cycle;Signal;HPM_P1;HPM_P2
2022/02/17 00:01:07;;;;;;;0.00;0.00;;;13.20;99.90;;;;;;5074273;28;20140;-71
2022/02/17 00:03:33;;;;;;;0.00;0.00;;;13.20;99.90;;;;;;5074359;28;20499;-71
2022/02/17 00:06:00;;;;;;;0.00;0.00;;;13.20;99.90;;;;;;5074187;28;20057;-71
2022/02/17 00:08:26;;;;;;;0.00;0.00;;;13.10;99.90;;;;;;5073835;28;20024;-71
2022/02/17 00:10:51;;;;;;;0.00;0.00;;;13.10;99.90;;;;;;5073649;28;20029;-71
2022/02/17 00:13:17;;;;;;;0.00;0.00;;;13.20;99.90;;;;;;5073723;28;20104;-72
2022/02/17 00:15:43;;;;;;;0.00;0.00;;;13.30;99.90;;;;;;5074011;28;20037;-72
2022/02/17 00:18:21;;;;;;;0.00;0.00;;;13.20;99.90;;;;;;5089337;28;20043;-71
2022/02/17 00:20:56;;;;;;;0.00;0.00;;;13.20;99.90;;;;;;5089395;28;20517;-71
2022/02/17 00:23:23;;;;;;;0.00;0.00;;;13.20;99.90;;;;;;5073925;28;20025;-72
2022/02/17 00:25:48;;;;;;;0.00;0.00;;;13.40;99.90;;;;;;5089101;28;20397;-71
2022/02/17 00:28:14;;;;;;;0.00;0.00;;;13.40;99.90;;;;;;5073943;28;20029;-71
2022/02/17 00:30:40;;;;;;;0.00;0.00;;;13.30;99.90;;;;;;5072400;28;20099;-72
2022/02/17 00:33:06;;;;;;;0.00;0.00;;;13.20;99.90;;;;;;5088746;28;20043;-71
2022/02/17 00:35:33;;;;;;;0.00;0.00;;;13.30;99.90;;;;;;5089350;28;20469;-71
2022/02/17 00:38:00;;;;;;;0.00;0.00;;;13.40;99.90;;;;;;5073573;28;20072;-73
2022/02/17 00:40:26;;;;;;;0.00;0.00;;;13.30;99.90;;;;;;5073385;28;20489;-70
2022/02/17 00:42:52;;;;;;;0.00;0.00;;;13.40;99.90;;;;;;5073604;28;20488;-71
2022/02/17 00:45:18;;;;;;;0.00;0.00;;;13.60;99.90;;;;;;5072533;28;20035;-71
2022/02/17 00:47:44;;;;;;;0.00;0.00;;;13.70;99.90;;;;;;5088411;28;20056;-71
2022/02/17 00:50:10;;;;;;;0.00;0.00;;;13.70;99.90;;;;;;5073608;28;20028;-71
2022/02/17 00:52:36;;;;;;;0.00;0.00;;;13.50;99.90;;;;;;5073160;28;20399;-71
2022/02/17 00:55:04;;;;;;;0.00;0.00;;;13.50;99.90;;;;;;5073089;28;20033;-71
2022/02/17 00:57:30;;;;;;;0.00;0.00;;;13.60;99.90;;;;;;5088582;28;20037;-72
2022/02/17 00:59:56;;;;;;;0.00;0.00;;;13.60;99.90;;;;;;5088165;28;20036;-71
2022/02/17 01:02:21;;;;;;;0.00;0.00;;;13.70;99.90;;;;;;5088741;28;20040;-72
2022/02/17 01:04:47;;;;;;;0.00;0.00;;;13.70;99.90;;;;;;5072793;28;20052;-72
2022/02/17 01:07:14;;;;;;;0.00;0.00;;;13.80;99.90;;;;;;5073178;28;20090;-72
2022/02/17 01:09:40;;;;;;;0.00;0.00;;;13.70;99.90;;;;;;5073191;28;20385;-72
2022/02/17 01:12:07;;;;;;;0.00;0.00;;;13.70;99.90;;;;;;5072430;28;20031;-72
2022/02/17 01:14:33;;;;;;;0.00;0.00;;;13.70;99.90;;;;;;5072876;28;20074;-72
2022/02/17 01:16:58;;;;;;;0.00;0.00;;;13.70;99.90;;;;;;5072893;28;20048;-72
2022/02/17 01:19:24;;;;;;;0.00;0.00;;;13.70;99.90;;;;;;5072977;28;20473;-71
2022/02/17 01:21:51;;;;;;;0.00;0.00;;;13.70;99.90;;;;;;5072321;28;20021;-72
2022/02/17 01:24:16;;;;;;;1.35;1.00;;;13.80;99.90;;;;;;5088303;28;20033;-71
2022/02/17 01:26:42;;;;;;;0.00;0.00;;;13.90;99.90;;;;;;5072552;28;20032;-71
2022/02/17 01:29:08;;;;;;;0.00;0.00;;;13.90;99.90;;;;;;5088125;28;20039;-72
2022/02/17 01:31:34;;;;;;;0.00;0.00;;;13.90;99.90;;;;;;5072310;28;20063;-72
2022/02/17 01:34:00;;;;;;;0.00;0.00;;;13.80;99.90;;;;;;5072114;28;20039;-72
2022/02/17 01:36:26;;;;;;;0.00;0.00;;;13.80;99.90;;;;;;5072428;28;20063;-71
2022/02/17 01:38:52;;;;;;;0.00;0.00;;;13.90;99.90;;;;;;5087838;28;20091;-72
2022/02/17 01:41:18;;;;;;;0.00;0.00;;;13.90;99.90;;;;;;5088294;28;20036;-72
2022/02/17 01:43:50;;;;;;;0.00;0.00;;;13.90;99.90;;;;;;5087904;28;20028;-71
2022/02/17 01:46:30;;;;;;;0.00;0.00;;;14.00;99.90;;;;;;5087541;28;20166;-71
2022/02/17 01:48:56;;;;;;;0.00;0.00;;;13.90;99.90;;;;;;5086019;28;20081;-71
2022/02/17 01:51:21;;;;;;;0.00;0.00;;;13.90;99.90;;;;;;5072412;28;20111;-71
2022/02/17 01:53:47;;;;;;;0.00;0.00;;;13.90;99.90;;;;;;5087702;28;20496;-71
2022/02/17 01:56:13;;;;;;;0.00;0.00;;;13.90;99.90;;;;;;5071891;28;20033;-71
2022/02/17 01:58:39;;;;;;;0.00;0.00;;;13.90;99.90;;;;;;5072194;28;20040;-71
2022/02/17 02:01:05;;;;;;;4.47;1.40;;;13.90;99.90;;;;;;5072161;28;20032;-72
2022/02/17 02:03:30;;;;;;;0.00;0.00;;;14.00;99.90;;;;;;5087473;28;20474;-71
2022/02/17 02:05:56;;;;;;;0.00;0.00;;;14.00;99.90;;;;;;5071730;28;20032;-71
2022/02/17 02:08:22;;;;;;;0.00;0.00;;;14.00;99.90;;;;;;5072199;28;20021;-71
2022/02/17 02:10:48;;;;;;;4.18;2.00;;;14.00;99.90;;;;;;5087741;28;20037;-71
2022/02/17 02:13:14;;;;;;;0.00;0.00;;;14.10;99.90;;;;;;5071648;28;20098;-71
2022/02/17 02:15:52;;;;;;;0.00;0.00;;;14.10;99.90;;;;;;5072055;28;20025;-71
2022/02/17 02:18:20;;;;;;;0.00;0.00;;;14.10;99.90;;;;;;5087127;28;20079;-71
2022/02/17 02:20:52;;;;;;;0.00;0.00;;;14.10;99.90;;;;;;5072022;28;20032;-71
2022/02/17 02:23:19;;;;;;;0.00;0.00;;;14.20;99.90;;;;;;5071962;28;20481;-72
2022/02/17 02:25:48;;;;;;;0.00;0.00;;;14.30;99.90;;;;;;5087369;28;20047;-72
2022/02/17 02:28:29;;;;;;;0.00;0.00;;;14.30;99.90;;;;;;5071562;28;20381;-70
2022/02/17 02:30:55;;;;;;;0.00;0.00;;;14.30;99.90;;;;;;5070647;28;20029;-70
2022/02/17 02:33:22;;;;;;;0.00;0.00;;;14.30;99.90;;;;;;5087172;28;20035;-70
2022/02/17 02:35:50;;;;;;;0.00;0.00;;;14.20;99.90;;;;;;5071969;28;20040;-70
2022/02/17 02:38:16;;;;;;;0.00;0.00;;;14.30;99.90;;;;;;5071689;28;20032;-70
2022/02/17 02:40:42;;;;;;;0.00;0.00;;;14.40;99.90;;;;;;5087275;28;20039;-70
2022/02/17 02:43:08;;;;;;;3.00;1.25;;;14.40;99.90;;;;;;5071496;28;20033;-70
2022/02/17 02:45:35;;;;;;;0.00;0.00;;;14.40;99.90;;;;;;5087328;28;20032;-70
2022/02/17 02:48:09;;;;;;;0.00;0.00;;;14.30;99.90;;;;;;5071398;28;20485;-70
2022/02/17 02:50:36;;;;;;;0.00;0.00;;;14.20;99.90;;;;;;5071502;28;20029;-71
2022/02/17 02:53:04;;;;;;;0.00;0.00;;;14.10;99.90;;;;;;5087178;28;20033;-71
2022/02/17 02:55:31;;;;;;;0.00;0.00;;;14.10;99.90;;;;;;5071607;28;20430;-71
2022/02/17 02:57:58;;;;;;;0.00;0.00;;;14.10;99.90;;;;;;5087058;28;20040;-71
2022/02/17 03:00:25;;;;;;;0.00;0.00;;;14.10;99.90;;;;;;5087319;28;20036;-72
2022/02/17 03:02:51;;;;;;;0.00;0.00;;;14.00;99.90;;;;;;5071483;28;20070;-70
2022/02/17 03:05:17;;;;;;;0.03;0.03;;;14.10;99.90;;;;;;5087423;28;20415;-71
2022/02/17 03:07:43;;;;;;;0.00;0.00;;;14.10;99.90;;;;;;5072017;28;20032;-71
2022/02/17 03:10:09;;;;;;;0.00;0.00;;;14.10;99.90;;;;;;5075302;28;20369;-71
2022/02/17 03:12:36;;;;;;;0.00;0.00;;;14.20;99.90;;;;;;5075449;28;20536;-73
2022/02/17 03:15:04;;;;;;;0.00;0.00;;;14.20;99.90;;;;;;5090653;28;20033;-69
2022/02/17 03:17:29;;;;;;;0.00;0.00;;;14.40;99.90;;;;;;5090985;28;20393;-69
2022/02/17 03:19:55;;;;;;;0.00;0.00;;;14.30;99.90;;;;;;5091020;28;20029;-69
2022/02/17 03:22:21;;;;;;;0.00;0.00;;;14.40;99.90;;;;;;5091080;28;20116;-69
2022/02/17 03:24:47;;;;;;;0.00;0.00;;;14.50;99.90;;;;;;5075487;28;20093;-69
2022/02/17 03:27:12;;;;;;;0.00;0.00;;;14.40;99.90;;;;;;5075245;28;20039;-69
2022/02/17 03:29:38;;;;;;;0.00;0.00;;;14.30;99.90;;;;;;5075279;28;20037;-69
2022/02/17 03:32:05;;;;;;;0.00;0.00;;;14.20;99.90;;;;;;5090842;28;20056;-69
2022/02/17 03:34:31;;;;;;;0.00;0.00;;;14.20;99.90;;;;;;5073535;28;20028;-69
2022/02/17 03:36:56;;;;;;;0.00;0.00;;;14.30;99.90;;;;;;5074940;28;20039;-69
2022/02/17 03:39:22;;;;;;;0.00;0.00;;;14.30;99.90;;;;;;5075226;28;20028;-70
2022/02/17 03:41:48;;;;;;;0.00;0.00;;;14.20;99.90;;;;;;5090391;28;20083;-68
2022/02/17 03:44:14;;;;;;;0.00;0.00;;;14.10;99.90;;;;;;5073421;28;20074;-68
2022/02/17 03:46:41;;;;;;;0.00;0.00;;;14.00;99.90;;;;;;5074335;28;20059;-68
2022/02/17 03:49:07;;;;;;;0.00;0.00;;;13.90;99.90;;;;;;5074763;28;20028;-67
2022/02/17 03:51:33;;;;;;;1.08;0.98;;;13.80;99.90;;;;;;5074176;28;20174;-68
2022/02/17 03:53:59;;;;;;;0.00;0.00;;;13.70;99.90;;;;;;5074604;28;20039;-67
2022/02/17 03:56:25;;;;;;;0.00;0.00;;;13.50;99.90;;;;;;5090271;28;20035;-67
2022/02/17 03:59:03;;;;;;;0.10;0.08;;;13.50;99.90;;;;;;5074574;28;20056;-67
2022/02/17 04:01:35;;;;;;;0.00;0.00;;;13.40;99.90;;;;;;5074518;28;20059;-67
2022/02/17 04:04:03;;;;;;;0.00;0.00;;;13.30;99.90;;;;;;5074703;28;20032;-67
2022/02/17 04:06:30;;;;;;;0.00;0.00;;;13.30;99.90;;;;;;5089764;28;20422;-67
2022/02/17 04:08:56;;;;;;;0.45;0.45;;;13.20;99.90;;;;;;5074266;28;20025;-67
2022/02/17 04:11:22;;;;;;;18.23;1.15;;;13.20;99.90;;;;;;5089747;28;20104;-67
2022/02/17 04:13:49;;;;;;;0.00;0.00;;;13.30;99.90;;;;;;5089665;28;20032;-67
2022/02/17 04:16:17;;;;;;;0.00;0.00;;;13.20;99.90;;;;;;5073796;28;20541;-67
2022/02/17 04:18:45;;;;;;;0.00;0.00;;;13.40;99.90;;;;;;5089288;28;20742;-66
2022/02/17 04:21:12;;;;;;;0.00;0.00;;;13.50;99.90;;;;;;5089383;28;20390;-67
2022/02/17 04:23:44;;;;;;;0.00;0.00;;;13.40;99.90;;;;;;5074066;28;20088;-67
2022/02/17 04:26:12;;;;;;;0.00;0.00;;;13.40;99.90;;;;;;5073784;28;20032;-66
2022/02/17 04:28:39;;;;;;;0.00;0.00;;;13.40;99.90;;;;;;5073737;28;20639;-67
2022/02/17 04:31:06;;;;;;;0.00;0.00;;;13.40;99.90;;;;;;5089349;28;20025;-67
2022/02/17 04:33:34;;;;;;;0.00;0.00;;;13.40;99.90;;;;;;5088942;28;20555;-67
2022/02/17 04:36:00;;;;;;;0.00;0.00;;;13.50;99.90;;;;;;5073759;28;20029;-66
2022/02/17 04:38:26;;;;;;;0.00;0.00;;;13.50;99.90;;;;;;5088854;28;20040;-66
2022/02/17 04:43:36;;;;;;;0.20;0.20;;;13.50;99.90;;;;;;5086699;28;20028;-67
2022/02/17 04:46:03;;;;;;;0.00;0.00;;;13.50;99.90;;;;;;5073091;28;20056;-67
2022/02/17 04:48:28;;;;;;;0.00;0.00;;;13.50;99.90;;;;;;5088765;28;20036;-67
2022/02/17 04:50:54;;;;;;;0.00;0.00;;;13.40;99.90;;;;;;5088876;28;20473;-66
2022/02/17 04:53:20;;;;;;;0.00;0.00;;;13.50;99.90;;;;;;5088179;28;20494;-66
2022/02/17 04:55:46;;;;;;;0.10;0.10;;;13.40;99.90;;;;;;5073213;28;20099;-65
2022/02/17 04:58:12;;;;;;;0.20;0.20;;;13.40;99.90;;;;;;5070206;28;20120;-66
2022/02/17 05:00:38;;;;;;;0.00;0.00;;;13.30;99.90;;;;;;5073053;28;20032;-66
2022/02/17 05:03:04;;;;;;;0.32;0.32;;;13.20;99.90;;;;;;5072957;28;20524;-64
2022/02/17 05:05:30;;;;;;;0.15;0.15;;;13.20;99.90;;;;;;5072246;28;20093;-65
2022/02/17 05:07:56;;;;;;;0.10;0.10;;;13.20;99.90;;;;;;5051263;28;20067;-64
2022/02/17 05:10:21;;;;;;;0.08;0.08;;;13.30;99.90;;;;;;5052983;28;20029;-66
2022/02/17 05:12:47;;;;;;;0.00;0.00;;;13.20;99.90;;;;;;5072218;28;20058;-64
2022/02/17 05:15:13;;;;;;;8.52;0.80;;;13.10;99.90;;;;;;5072682;28;20105;-64
2022/02/17 05:17:39;;;;;;;0.00;0.00;;;13.10;99.90;;;;;;5073020;28;20040;-63
2022/02/17 05:20:06;;;;;;;0.10;0.10;;;13.10;99.90;;;;;;5072377;28;20082;-63
2022/02/17 05:22:32;;;;;;;0.00;0.00;;;13.10;99.90;;;;;;5072238;28;20044;-64
2022/02/17 05:24:58;;;;;;;0.00;0.00;;;13.00;99.90;;;;;;5071353;28;20020;-64
2022/02/17 05:27:24;;;;;;;0.00;0.00;;;12.90;99.90;;;;;;5072513;28;20037;-64
2022/02/17 05:29:50;;;;;;;0.00;0.00;;;12.90;99.90;;;;;;5072442;28;20063;-64
2022/02/17 05:32:15;;;;;;;0.40;0.40;;;12.90;99.90;;;;;;5071777;28;20036;-65
2022/02/17 05:34:41;;;;;;;0.00;0.00;;;12.80;99.90;;;;;;5087881;28;20488;-64
2022/02/17 05:37:07;;;;;;;0.22;0.22;;;12.80;99.90;;;;;;5072011;28;20146;-63
2022/02/17 05:39:35;;;;;;;0.00;0.00;;;12.70;99.90;;;;;;5088039;28;20128;-63
2022/02/17 05:42:03;;;;;;;0.00;0.00;;;12.80;99.90;;;;;;5072191;28;20033;-63
2022/02/17 05:44:29;;;;;;;0.00;0.00;;;12.70;99.90;;;;;;5072248;28;20020;-64
2022/02/17 05:46:54;;;;;;;0.40;0.28;;;12.70;99.90;;;;;;5071928;28;20060;-63
2022/02/17 05:49:20;;;;;;;0.08;0.08;;;12.60;99.90;;;;;;5072183;28;20385;-63
2022/02/17 05:51:46;;;;;;;0.70;0.70;;;12.60;99.90;;;;;;5087461;28;20028;-63
2022/02/17 05:54:11;;;;;;;0.00;0.00;;;12.50;99.90;;;;;;5071778;28;20028;-64
2022/02/17 05:56:37;;;;;;;0.00;0.00;;;12.50;99.90;;;;;;5087414;28;20496;-65
2022/02/17 05:59:03;;;;;;;0.00;0.00;;;12.40;99.90;;;;;;5083950;28;20090;-64
2022/02/17 06:01:28;;;;;;;0.08;0.08;;;12.40;99.90;;;;;;5052055;28;20106;-63
2022/02/17 06:03:54;;;;;;;0.00;0.00;;;12.40;99.90;;;;;;5050771;28;20071;-63
2022/02/17 06:06:20;;;;;;;0.00;0.00;;;12.40;99.90;;;;;;5050398;28;20061;-64
2022/02/17 06:08:46;;;;;;;0.05;0.05;;;12.30;99.90;;;;;;5051976;28;20083;-64
2022/02/17 06:11:11;;;;;;;0.38;0.38;;;12.40;99.90;;;;;;5051711;28;20047;-64
2022/02/17 06:13:37;;;;;;;0.35;0.35;;;12.40;99.90;;;;;;5051600;28;20055;-63
2022/02/17 06:16:03;;;;;;;0.65;0.47;;;12.30;99.90;;;;;;5083888;28;20048;-64
2022/02/17 06:18:29;;;;;;;1.55;1.00;;;12.20;99.90;;;;;;5051945;28;20069;-63
2022/02/17 06:20:54;;;;;;;0.00;0.00;;;12.20;99.90;;;;;;5051727;28;20090;-64
2022/02/17 06:23:20;;;;;;;0.10;0.10;;;12.20;99.90;;;;;;5051226;28;20036;-64
2022/02/17 06:25:46;;;;;;;0.00;0.00;;;12.20;99.90;;;;;;5051337;28;20029;-64
2022/02/17 06:28:13;;;;;;;0.13;0.13;;;12.10;99.90;;;;;;5063971;28;20115;-64
2022/02/17 06:30:43;;;;;;;0.00;0.00;;;12.10;99.90;;;;;;5071317;28;20059;-64
2022/02/17 06:33:09;;;;;;;0.10;0.10;;;12.00;99.90;;;;;;5069035;28;20037;-64
2022/02/17 06:35:38;;;;;;;0.00;0.00;;;12.00;99.90;;;;;;5070021;28;20035;-64
2022/02/17 06:38:05;;;;;;;2.55;1.10;;;12.10;99.90;;;;;;5071116;28;20040;-65
2022/02/17 06:40:32;;;;;;;0.80;0.80;;;12.10;99.90;;;;;;5070041;28;20078;-64
2022/02/17 06:43:06;;;;;;;0.00;0.00;;;12.10;99.90;;;;;;5072057;28;20536;-65
2022/02/17 06:45:36;;;;;;;9.07;1.88;;;12.10;99.90;;;;;;5091209;28;20067;-65
2022/02/17 06:48:04;;;;;;;0.00;0.00;;;12.10;99.90;;;;;;5075395;28;20041;-66
2022/02/17 06:50:30;;;;;;;0.10;0.10;;;12.10;99.90;;;;;;5075267;28;20040;-66
2022/02/17 06:52:56;;;;;;;0.08;0.08;;;12.10;99.90;;;;;;5075248;28;20068;-66
2022/02/17 06:55:22;;;;;;;1.27;0.57;;;12.10;99.90;;;;;;5073945;28;20060;-66
2022/02/17 06:57:48;;;;;;;0.63;0.63;;;12.10;99.90;;;;;;5074560;28;20035;-65
2022/02/17 07:00:14;;;;;;;0.00;0.00;;;12.10;99.90;;;;;;5074142;28;20443;-66
2022/02/17 07:02:40;;;;;;;0.00;0.00;;;12.10;99.90;;;;;;5075034;28;20028;-66
2022/02/17 07:05:07;;;;;;;0.00;0.00;;;12.20;99.90;;;;;;5075366;28;20329;-66
2022/02/17 07:07:35;;;;;;;0.35;0.35;;;12.10;99.90;;;;;;5073981;28;20032;-65
2022/02/17 07:10:05;;;;;;;0.00;0.00;;;12.10;99.90;;;;;;5073715;28;20029;-65
2022/02/17 07:12:31;;;;;;;0.95;0.95;;;12.00;99.90;;;;;;5074716;28;20033;-65
2022/02/17 07:14:58;;;;;;;0.10;0.10;;;12.00;99.90;;;;;;5057432;28;20029;-66
2022/02/17 07:17:24;;;;;;;0.10;0.10;;;12.00;99.90;;;;;;5057638;28;20044;-65
2022/02/17 07:19:51;;;;;;;1.83;1.67;;;12.00;99.90;;;;;;5054896;28;20064;-65
2022/02/17 07:22:17;;;;;;;0.00;0.00;;;11.90;99.90;;;;;;5053463;28;20048;-66
2022/02/17 07:24:42;;;;;;;0.00;0.00;;;11.90;99.90;;;;;;5054776;28;20037;-65
2022/02/17 07:27:09;;;;;;;0.00;0.00;;;11.80;99.90;;;;;;5054552;28;20048;-65
2022/02/17 07:29:36;;;;;;;0.00;0.00;;;11.80;99.90;;;;;;5054787;28;20033;-65
2022/02/17 07:32:05;;;;;;;0.80;0.70;;;11.90;99.90;;;;;;5053335;28;20029;-65
2022/02/17 07:34:30;;;;;;;0.00;0.00;;;11.90;99.90;;;;;;5054567;28;20029;-65
2022/02/17 07:36:56;;;;;;;0.00;0.00;;;11.90;99.90;;;;;;5053483;28;20040;-65
2022/02/17 07:39:22;;;;;;;1.45;1.27;;;11.90;99.90;;;;;;5054506;28;20095;-67
2022/02/17 07:41:48;;;;;;;1.75;0.77;;;11.90;99.90;;;;;;5054576;28;20553;-65
2022/02/17 07:44:14;;;;;;;0.10;0.10;;;11.90;99.90;;;;;;5052922;28;20056;-65
2022/02/17 07:46:40;;;;;;;0.00;0.00;;;12.00;99.90;;;;;;5054097;28;20041;-65
2022/02/17 07:49:06;;;;;;;0.10;0.10;;;12.00;99.90;;;;;;5052886;28;20470;-65
2022/02/17 07:51:33;;;;;;;0.00;0.00;;;12.10;99.90;;;;;;5052680;28;20143;-65
2022/02/17 07:53:59;;;;;;;0.10;0.10;;;12.10;99.90;;;;;;5053927;28;20033;-66
2022/02/17 07:56:25;;;;;;;11.40;1.40;;;12.20;99.90;;;;;;5054210;28;20025;-65
2022/02/17 07:58:51;;;;;;;0.73;0.73;;;12.30;99.90;;;;;;5053778;28;20182;-65
2022/02/17 08:01:18;;;;;;;0.08;0.08;;;12.10;99.90;;;;;;5054120;28;20025;-64
2022/02/17 08:03:45;;;;;;;0.25;0.25;;;11.70;99.90;;;;;;5054206;28;20051;-66
2022/02/17 08:06:12;;;;;;;15.23;0.70;;;11.50;99.90;;;;;;5054098;28;20044;-66
2022/02/17 08:08:38;;;;;;;0.00;0.00;;;11.50;99.90;;;;;;5054136;28;20033;-66
2022/02/17 08:11:05;;;;;;;0.03;0.03;;;11.50;99.90;;;;;;5053919;28;20060;-66
2022/02/17 08:13:32;;;;;;;0.00;0.00;;;11.60;99.90;;;;;;5052571;28;20033;-66
2022/02/17 08:15:57;;;;;;;3.83;0.40;;;11.70;99.90;;;;;;5054148;28;20441;-67
2022/02/17 08:18:23;;;;;;;0.10;0.10;;;11.70;99.90;;;;;;5053914;28;20036;-67
2022/02/17 08:20:49;;;;;;;0.00;0.00;;;11.80;99.90;;;;;;5053584;28;20033;-67
2022/02/17 08:23:16;;;;;;;0.75;0.75;;;11.80;99.90;;;;;;5053898;28;20078;-67
2022/02/17 08:25:42;;;;;;;1.38;1.13;;;12.00;99.90;;;;;;5054130;28;20044;-67
2022/02/17 08:28:08;;;;;;;1.65;1.23;;;12.00;99.90;;;;;;5053697;28;20044;-67
2022/02/17 08:30:36;;;;;;;0.05;0.05;;;12.00;99.90;;;;;;5052192;28;20390;-67
2022/02/17 08:33:04;;;;;;;1.42;1.33;;;12.10;99.90;;;;;;5052295;28;20362;-67
2022/02/17 08:35:30;;;;;;;5.78;2.45;;;12.10;99.90;;;;;;5053242;28;20033;-67
2022/02/17 08:37:56;;;;;;;1.17;0.73;;;12.30;99.80;;;;;;5052430;28;20124;-67
2022/02/17 08:40:23;;;;;;;6.55;2.30;;;12.30;99.20;;;;;;5052012;28;20114;-67
2022/02/17 08:42:49;;;;;;;0.20;0.20;;;12.40;99.40;;;;;;5053420;28;20071;-66
2022/02/17 08:45:15;;;;;;;0.43;0.43;;;12.40;99.50;;;;;;5052080;28;20044;-67
2022/02/17 08:47:41;;;;;;;0.40;0.40;;;12.30;99.30;;;;;;5053018;28;20049;-67
2022/02/17 08:50:11;;;;;;;0.20;0.20;;;12.20;99.60;;;;;;5052125;28;20051;-67
2022/02/17 08:52:38;;;;;;;0.52;0.52;;;12.20;99.90;;;;;;5065495;28;20036;-67
2022/02/17 08:55:06;;;;;;;0.08;0.08;;;12.20;99.50;;;;;;5071653;28;20128;-67
2022/02/17 08:57:32;;;;;;;6.40;3.03;;;12.20;99.50;;;;;;5071577;28;20040;-66
2022/02/17 08:59:58;;;;;;;0.15;0.15;;;12.30;99.30;;;;;;5072781;28;20378;-66
2022/02/17 09:02:24;;;;;;;1.05;0.45;;;12.40;99.10;;;;;;5072695;28;20048;-66
2022/02/17 09:04:49;;;;;;;0.10;0.10;;;12.40;99.20;;;;;;5071890;28;20032;-67
2022/02/17 09:07:15;;;;;;;0.10;0.10;;;12.30;99.60;;;;;;5070410;28;20029;-67
2022/02/17 09:09:41;;;;;;;0.88;0.88;;;12.50;99.00;;;;;;5071772;28;20024;-66
2022/02/17 09:12:08;;;;;;;2.55;1.90;;;12.50;98.10;;;;;;5072461;28;20075;-66
2022/02/17 09:14:34;;;;;;;0.75;0.75;;;12.50;98.10;;;;;;5054676;28;20028;-67
2022/02/17 09:17:00;;;;;;;6.47;2.70;;;12.30;98.10;;;;;;5071431;28;20033;-67
2022/02/17 09:19:25;;;;;;;1.20;1.10;;;12.40;98.00;;;;;;5068032;28;20035;-66
2022/02/17 09:21:51;;;;;;;0.30;0.30;;;12.30;98.30;;;;;;5071373;28;20044;-66
2022/02/17 09:24:17;;;;;;;0.00;0.00;;;12.30;98.80;;;;;;5072346;28;20059;-66
2022/02/17 09:26:45;;;;;;;1.58;0.73;;;12.00;99.90;;;;;;5072307;28;20094;-66
2022/02/17 09:29:12;;;;;;;0.00;0.00;;;11.90;99.90;;;;;;5054759;28;20366;-66
2022/02/17 09:31:37;;;;;;;0.75;0.75;;;11.60;99.90;;;;;;5072497;28;20028;-67
2022/02/17 09:34:03;;;;;;;0.00;0.00;;;11.50;99.90;;;;;;5072479;28;20106;-67
2022/02/17 09:36:29;;;;;;;0.00;0.00;;;11.50;99.90;;;;;;5071022;28;20071;-66
2022/02/17 09:38:56;;;;;;;0.93;0.88;;;11.70;99.90;;;;;;5072307;28;20043;-67
2022/02/17 09:41:23;;;;;;;0.00;0.00;;;11.80;99.90;;;;;;5070698;28;20121;-66
2022/02/17 09:43:51;;;;;;;0.00;0.00;;;11.70;99.90;;;;;;5072196;28;20033;-66
2022/02/17 09:46:21;;;;;;;0.50;0.50;;;11.80;99.90;;;;;;5053776;28;20054;-67
2022/02/17 09:49:00;;;;;;;0.47;0.47;;;11.90;99.90;;;;;;5071812;28;20119;-67
2022/02/17 09:51:28;;;;;;;0.00;0.00;;;12.10;99.90;;;;;;5087622;28;20499;-67
2022/02/17 09:53:57;;;;;;;0.13;0.13;;;12.30;99.90;;;;;;5072096;28;20147;-67
2022/02/17 09:56:24;;;;;;;1.95;1.08;;;12.30;99.90;;;;;;5070635;28;20461;-67
2022/02/17 09:58:54;;;;;;;0.03;0.03;;;12.50;99.90;;;;;;5071924;28;20476;-67
2022/02/17 10:01:27;;;;;;;4.68;1.55;;;12.60;99.90;;;;;;5071806;28;20432;-67
2022/02/17 10:04:24;;;;;;;0.00;0.00;;;12.60;99.80;;;;;;5072108;28;20033;-67
2022/02/17 10:07:02;;;;;;;0.75;0.75;;;12.60;99.40;;;;;;5071111;28;20485;-68
2022/02/17 10:09:38;;;;;;;0.05;0.05;;;12.70;99.30;;;;;;5071935;28;20124;-67
2022/02/17 10:12:05;;;;;;;4.35;2.85;;;12.70;99.20;;;;;;5071545;28;20409;-67
2022/02/17 10:14:31;;;;;;;0.00;0.00;;;12.70;99.70;;;;;;5070352;28;20107;-67
2022/02/17 10:17:05;;;;;;;1.25;0.63;;;12.80;98.50;;;;;;5071878;28;20054;-67
2022/02/17 10:19:44;;;;;;;9.55;1.88;;;12.90;98.30;;;;;;5070499;28;20032;-67
2022/02/17 10:22:34;;;;;;;0.00;0.00;;;12.90;98.20;;;;;;5071362;28;20027;-67
2022/02/17 10:25:01;;;;;;;2.55;0.65;;;12.90;98.60;;;;;;5071219;28;20507;-66
2022/02/17 10:27:34;;;;;;;0.43;0.43;;;13.10;98.10;;;;;;5071223;28;20468;-67
2022/02/17 10:30:11;;;;;;;0.00;0.00;;;13.30;97.70;;;;;;5071637;28;20033;-67
2022/02/17 10:33:03;;;;;;;1.58;1.17;;;13.50;97.20;;;;;;5069943;28;20044;-67
2022/02/17 10:35:29;;;;;;;0.57;0.57;;;13.20;97.70;;;;;;5071187;28;20382;-67
2022/02/17 10:37:59;;;;;;;0.30;0.30;;;13.00;98.30;;;;;;5070163;28;20051;-68
2022/02/17 10:40:33;;;;;;;0.00;0.00;;;13.10;98.00;;;;;;5069836;28;20381;-67
2022/02/17 10:43:12;;;;;;;0.75;0.65;;;13.10;98.00;;;;;;5071649;28;20086;-69
2022/02/17 10:45:45;;;;;;;1.48;1.38;;;12.80;98.80;;;;;;5069778;28;20075;-68
2022/02/17 10:48:20;;;;;;;0.10;0.10;;;12.60;99.90;;;;;;5071233;28;20032;-68
2022/02/17 10:51:02;;;;;;;1.27;1.17;;;12.30;99.90;;;;;;5071485;28;20043;-67
2022/02/17 10:53:30;;;;;;;0.00;0.00;;;11.80;99.90;;;;;;5070589;28;20422;-66
2022/02/17 10:55:59;;;;;;;0.10;0.10;;;11.60;99.90;;;;;;5070129;28;20025;-67
2022/02/17 10:58:29;;;;;;;0.88;0.88;;;11.40;99.90;;;;;;5070053;28;20648;-68
2022/02/17 11:01:03;;;;;;;0.00;0.00;;;11.20;99.90;;;;;;5069830;28;20041;-72
2022/02/17 11:03:34;;;;;;;0.00;0.00;;;11.20;99.90;;;;;;5071253;28;20032;-73
2022/02/17 11:06:02;;;;;;;0.35;0.35;;;11.50;99.90;;;;;;5071295;28;20025;-70
2022/02/17 11:08:28;;;;;;;0.00;0.00;;;11.90;99.90;;;;;;5071200;28;20117;-61
2022/02/17 11:10:56;;;;;;;0.00;0.00;;;12.30;99.90;;;;;;5069856;28;20031;-61
2022/02/17 11:13:25;;;;;;;0.10;0.10;;;12.30;99.90;;;;;;5056277;28;20025;-64
2022/02/17 11:15:54;;;;;;;2.25;1.27;;;12.00;99.90;;;;;;5049729;28;20151;-72
2022/02/17 11:18:21;;;;;;;0.45;0.45;;;12.30;99.90;;;;;;5051103;28;20033;-69
2022/02/17 11:20:49;;;;;;;0.28;0.28;;;12.80;99.90;;;;;;5049513;28;20436;-68
2022/02/17 11:23:20;;;;;;;0.20;0.20;;;12.90;99.90;;;;;;5049326;28;20037;-72
2022/02/17 11:25:48;;;;;;;0.08;0.08;;;13.10;99.90;;;;;;5050829;28;20528;-72
2022/02/17 11:28:17;;;;;;;0.35;0.35;;;12.80;99.90;;;;;;5049413;28;20136;-73
2022/02/17 11:30:58;;;;;;;0.20;0.20;;;12.80;99.90;;;;;;5053086;28;20039;-75
2022/02/17 11:33:28;;;;;;;;;;;12.40;99.90;;;;;;5053391;28;20037;-73
2022/02/17 11:36:25;;;;;;;0.00;0.00;;;12.30;99.90;;;;;;5054415;28;19923;-74
2022/02/17 11:39:05;;;;;;;1.25;1.17;;;12.30;99.90;;;;;;5055055;28;20083;-71
2022/02/17 11:41:37;;;;;;;0.20;0.20;;;12.10;99.90;;;;;;5056083;28;20033;-71
2022/02/17 11:44:16;;;;;;;;;;;12.00;99.90;;;;;;5071007;28;20041;-73
2022/02/17 11:46:42;;;;;;;0.00;0.00;;;12.00;99.90;;;;;;5073008;28;19917;-67
2022/02/17 11:49:12;;;;;;;0.28;0.28;;;12.20;99.90;;;;;;5074554;28;20044;-67
2022/02/17 11:51:38;;;;;;;0.20;0.20;;;12.80;99.90;;;;;;5074134;28;20028;-67
2022/02/17 11:54:18;;;;;;;0.25;0.25;;;12.30;99.90;;;;;;5056351;28;20044;-67
2022/02/17 11:56:50;;;;;;;0.63;0.60;;;12.60;99.90;;;;;;5074393;28;20513;-67
2022/02/17 11:59:32;;;;;;;14.00;1.65;;;13.20;99.90;;;;;;5073880;28;20037;-67
2022/02/17 12:02:00;;;;;;;0.25;0.25;;;13.60;99.90;;;;;;5073908;28;20036;-67
2022/02/17 12:04:34;;;;;;;0.00;0.00;;;13.30;99.90;;;;;;5073863;28;20037;-68
2022/02/17 12:07:29;;;;;;;0.25;0.25;;;13.80;99.90;;;;;;5072305;28;20449;-68
2022/02/17 12:09:55;;;;;;;0.38;0.38;;;14.10;99.90;;;;;;5073663;28;20040;-67
2022/02/17 12:12:26;;;;;;;2.00;1.55;;;14.50;98.80;;;;;;5073571;28;20028;-67
2022/02/17 12:15:01;;;;;;;0.00;0.00;;;14.30;97.80;;;;;;5072270;28;20039;-68
2022/02/17 12:17:36;;;;;;;0.00;0.00;;;13.70;97.10;;;;;;5072273;28;20032;-68
2022/02/17 12:20:12;;;;;;;0.30;0.30;;;13.60;97.30;;;;;;5073630;28;20040;-67
2022/02/17 12:23:02;;;;;;;0.50;0.50;;;13.40;98.30;;;;;;5072402;28;20032;-66
2022/02/17 12:25:40;;;;;;;0.65;0.65;;;13.30;98.40;;;;;;5069939;28;20040;-68
2022/02/17 12:28:12;;;;;;;0.00;0.00;;;13.40;98.90;;;;;;5071887;28;20036;-68
2022/02/17 12:30:47;;;;;;;0.10;0.10;;;13.80;99.20;;;;;;5072015;28;20086;-68
2022/02/17 12:33:23;;;;;;;0.00;0.00;;;13.80;98.90;;;;;;5073823;28;20071;-68
2022/02/17 12:36:00;;;;;;;9.07;2.78;;;13.80;99.50;;;;;;5056133;28;20032;-67
2022/02/17 12:38:31;;;;;;;0.20;0.20;;;14.30;98.80;;;;;;5073283;28;20602;-67
2022/02/17 12:40:58;;;;;;;0.45;0.45;;;13.90;99.00;;;;;;5070947;28;20111;-67
2022/02/17 12:43:33;;;;;;;0.00;0.00;;;14.10;99.00;;;;;;5071936;28;20477;-68
2022/02/17 12:46:05;;;;;;;1.80;1.48;;;13.80;98.80;;;;;;5072969;28;20057;-68
2022/02/17 12:48:35;;;;;;;0.68;0.22;;;14.10;97.50;;;;;;5068020;28;20028;-68
2022/02/17 12:51:01;;;;;;;1.20;1.00;;;14.40;96.10;;;;;;5059415;28;20040;-68
2022/02/17 12:53:28;;;;;;;6.63;1.55;;;14.10;95.70;;;;;;5072724;28;20536;-67
2022/02/17 12:55:57;;;;;;;0.10;0.10;;;13.90;96.50;;;;;;5073096;28;20074;-68